sensor_id;sensor_type;location;lat;lon;timestamp;P1;durP1;ratioP1;P2;durP2;ratioP2
4422;SDS011;2224;49.814;8.650;2022-10-17T00:00:47;10.10;;;5.90;;
4422;SDS011;2224;49.814;8.650;2022-10-17T00:03:12;13.60;;;5.60;;
4422;SDS011;2224;49.814;8.650;2022-10-17T00:05:42;8.63;;;5.23;;
4422;SDS011;2224;49.814;8.650;2022-10-17T00:08:09;7.77;;;5.70;;
4422;SDS011;2224;49.814;8.650;2022-10-17T00:10:35;9.93;;;5.87;;
4422;SDS011;2224;49.814;8.650;2022-10-17T00:13:01;12.90;;;6.10;;
4422;SDS011;2224;49.814;8.650;2022-10-17T00:15:27;16.53;;;6.23;;
4422;SDS011;2224;49.814;8.650;2022-10-17T00:17:52;8.57;;;5.33;;
4422;SDS011;2224;49.814;8.650;2022-10-17T00:20:18;9.27;;;6.10;;
4422;SDS011;2224;49.814;8.650;2022-10-17T00:22:43;11.07;;;6.70;;
4422;SDS011;2224;49.814;8.650;2022-10-17T00:25:09;12.13;;;5.43;;
4422;SDS011;2224;49.814;8.650;2022-10-17T00:27:35;5.70;;;5.10;;
4422;SDS011;2224;49.814;8.650;2022-10-17T00:30:02;6.73;;;5.57;;
4422;SDS011;2224;49.814;8.650;2022-10-17T00:32:28;8.30;;;5.83;;
4422;SDS011;2224;49.814;8.650;2022-10-17T00:34:53;7.70;;;5.50;;
4422;SDS011;2224;49.814;8.650;2022-10-17T00:37:19;7.13;;;6.43;;
4422;SDS011;2224;49.814;8.650;2022-10-17T00:39:44;7.47;;;5.53;;
4422;SDS011;2224;49.814;8.650;2022-10-17T00:42:11;8.07;;;6.27;;
4422;SDS011;2224;49.814;8.650;2022-10-17T00:47:07;11.30;;;5.67;;
4422;SDS011;2224;49.814;8.650;2022-10-17T00:49:34;9.33;;;6.10;;
4422;SDS011;2224;49.814;8.650;2022-10-17T00:52:01;6.77;;;5.57;;
4422;SDS011;2224;49.814;8.650;2022-10-17T00:54:33;10.70;;;5.13;;
4422;SDS011;2224;49.814;8.650;2022-10-17T00:56:59;8.40;;;6.07;;
4422;SDS011;2224;49.814;8.650;2022-10-17T00:59:25;6.60;;;5.73;;
4422;SDS011;2224;49.814;8.650;2022-10-17T01:02:10;9.57;;;6.03;;
4422;SDS011;2224;49.814;8.650;2022-10-17T01:04:41;9.70;;;5.80;;
4422;SDS011;2224;49.814;8.650;2022-10-17T01:07:08;8.70;;;6.27;;
4422;SDS011;2224;49.814;8.650;2022-10-17T01:09:34;8.53;;;6.03;;
4422;SDS011;2224;49.814;8.650;2022-10-17T01:31:28;7.03;;;5.40;;
4422;SDS011;2224;49.814;8.650;2022-10-17T01:34:01;6.90;;;5.83;;
4422;SDS011;2224;49.814;8.650;2022-10-17T01:36:36;8.43;;;6.57;;
4422;SDS011;2224;49.814;8.650;2022-10-17T01:39:09;7.23;;;5.70;;
4422;SDS011;2224;49.814;8.650;2022-10-17T01:46:50;8.20;;;5.90;;
4422;SDS011;2224;49.814;8.650;2022-10-17T01:49:19;9.73;;;6.20;;
4422;SDS011;2224;49.814;8.650;2022-10-17T01:51:48;10.90;;;6.70;;
4422;SDS011;2224;49.814;8.650;2022-10-17T01:57:02;8.37;;;5.53;;
4422;SDS011;2224;49.814;8.650;2022-10-17T01:59:32;5.70;;;5.10;;
4422;SDS011;2224;49.814;8.650;2022-10-17T02:02:00;7.87;;;6.03;;
4422;SDS011;2224;49.814;8.650;2022-10-17T02:04:26;8.07;;;5.77;;
4422;SDS011;2224;49.814;8.650;2022-10-17T02:06:52;7.97;;;4.73;;
4422;SDS011;2224;49.814;8.650;2022-10-17T02:09:21;5.60;;;5.00;;
4422;SDS011;2224;49.814;8.650;2022-10-17T02:12:07;6.37;;;5.30;;
4422;SDS011;2224;49.814;8.650;2022-10-17T02:14:50;8.03;;;5.27;;
4422;SDS011;2224;49.814;8.650;2022-10-17T02:25:54;10.13;;;5.60;;
4422;SDS011;2224;49.814;8.650;2022-10-17T02:31:14;7.63;;;6.10;;
4422;SDS011;2224;49.814;8.650;2022-10-17T02:36:15;8.47;;;6.40;;
4422;SDS011;2224;49.814;8.650;2022-10-17T02:38:46;6.90;;;5.90;;
4422;SDS011;2224;49.814;8.650;2022-10-17T02:41:13;8.80;;;6.00;;
4422;SDS011;2224;49.814;8.650;2022-10-17T02:43:40;6.90;;;6.30;;
4422;SDS011;2224;49.814;8.650;2022-10-17T02:46:09;7.30;;;5.67;;
4422;SDS011;2224;49.814;8.650;2022-10-17T02:48:37;7.70;;;6.47;;
4422;SDS011;2224;49.814;8.650;2022-10-17T02:56:30;6.67;;;6.00;;
4422;SDS011;2224;49.814;8.650;2022-10-17T02:58:59;8.50;;;6.60;;
4422;SDS011;2224;49.814;8.650;2022-10-17T03:01:25;11.80;;;6.30;;
4422;SDS011;2224;49.814;8.650;2022-10-17T03:03:50;6.77;;;5.70;;
4422;SDS011;2224;49.814;8.650;2022-10-17T03:06:16;10.17;;;6.00;;
4422;SDS011;2224;49.814;8.650;2022-10-17T03:08:41;8.60;;;7.63;;
4422;SDS011;2224;49.814;8.650;2022-10-17T03:11:06;6.97;;;6.37;;
4422;SDS011;2224;49.814;8.650;2022-10-17T03:13:32;9.30;;;7.27;;
4422;SDS011;2224;49.814;8.650;2022-10-17T03:15:57;7.93;;;6.60;;
4422;SDS011;2224;49.814;8.650;2022-10-17T03:18:22;7.90;;;7.07;;
4422;SDS011;2224;49.814;8.650;2022-10-17T03:20:48;8.23;;;7.33;;
4422;SDS011;2224;49.814;8.650;2022-10-17T03:23:13;9.00;;;7.57;;
4422;SDS011;2224;49.814;8.650;2022-10-17T03:25:38;7.87;;;7.07;;
4422;SDS011;2224;49.814;8.650;2022-10-17T03:28:04;8.73;;;6.77;;
4422;SDS011;2224;49.814;8.650;2022-10-17T03:30:29;11.37;;;7.03;;
4422;SDS011;2224;49.814;8.650;2022-10-17T03:32:58;9.20;;;6.67;;
4422;SDS011;2224;49.814;8.650;2022-10-17T03:35:25;6.97;;;6.27;;
4422;SDS011;2224;49.814;8.650;2022-10-17T03:37:50;8.00;;;7.30;;
4422;SDS011;2224;49.814;8.650;2022-10-17T03:40:16;7.73;;;6.93;;
4422;SDS011;2224;49.814;8.650;2022-10-17T03:42:41;9.50;;;6.97;;
4422;SDS011;2224;49.814;8.650;2022-10-17T03:45:06;7.53;;;6.83;;
4422;SDS011;2224;49.814;8.650;2022-10-17T03:47:32;6.63;;;6.03;;
4422;SDS011;2224;49.814;8.650;2022-10-17T03:49:57;13.13;;;7.83;;
4422;SDS011;2224;49.814;8.650;2022-10-17T03:52:23;10.50;;;6.60;;
4422;SDS011;2224;49.814;8.650;2022-10-17T03:54:48;9.60;;;7.70;;
4422;SDS011;2224;49.814;8.650;2022-10-17T03:57:14;7.07;;;6.17;;
4422;SDS011;2224;49.814;8.650;2022-10-17T03:59:40;14.40;;;7.67;;
4422;SDS011;2224;49.814;8.650;2022-10-17T04:02:05;7.23;;;6.53;;
4422;SDS011;2224;49.814;8.650;2022-10-17T04:04:30;8.27;;;6.33;;
4422;SDS011;2224;49.814;8.650;2022-10-17T04:06:56;9.60;;;7.23;;
4422;SDS011;2224;49.814;8.650;2022-10-17T04:09:21;6.90;;;6.30;;
4422;SDS011;2224;49.814;8.650;2022-10-17T04:11:46;7.83;;;7.03;;
4422;SDS011;2224;49.814;8.650;2022-10-17T04:14:12;10.47;;;6.73;;
4422;SDS011;2224;49.814;8.650;2022-10-17T04:16:38;10.33;;;6.90;;
4422;SDS011;2224;49.814;8.650;2022-10-17T04:19:03;8.63;;;7.10;;
4422;SDS011;2224;49.814;8.650;2022-10-17T04:21:29;8.97;;;8.07;;
4422;SDS011;2224;49.814;8.650;2022-10-17T04:23:55;8.03;;;7.33;;
4422;SDS011;2224;49.814;8.650;2022-10-17T04:26:21;8.33;;;7.60;;
4422;SDS011;2224;49.814;8.650;2022-10-17T04:28:47;14.33;;;10.40;;
4422;SDS011;2224;49.814;8.650;2022-10-17T04:31:13;9.73;;;8.17;;
4422;SDS011;2224;49.814;8.650;2022-10-17T04:33:38;11.50;;;8.77;;
4422;SDS011;2224;49.814;8.650;2022-10-17T04:36:05;9.93;;;6.90;;
4422;SDS011;2224;49.814;8.650;2022-10-17T04:38:32;9.23;;;7.90;;
4422;SDS011;2224;49.814;8.650;2022-10-17T04:40:58;10.23;;;7.30;;
4422;SDS011;2224;49.814;8.650;2022-10-17T04:43:31;8.80;;;7.63;;
4422;SDS011;2224;49.814;8.650;2022-10-17T04:45:58;10.00;;;6.60;;
4422;SDS011;2224;49.814;8.650;2022-10-17T04:48:24;9.17;;;7.47;;
4422;SDS011;2224;49.814;8.650;2022-10-17T04:50:53;8.67;;;7.40;;
4422;SDS011;2224;49.814;8.650;2022-10-17T04:53:19;10.17;;;6.93;;
4422;SDS011;2224;49.814;8.650;2022-10-17T04:55:45;9.90;;;7.67;;
4422;SDS011;2224;49.814;8.650;2022-10-17T04:58:10;11.17;;;7.17;;
4422;SDS011;2224;49.814;8.650;2022-10-17T05:00:35;18.73;;;8.30;;
4422;SDS011;2224;49.814;8.650;2022-10-17T05:03:01;15.60;;;7.90;;
4422;SDS011;2224;49.814;8.650;2022-10-17T05:05:26;12.70;;;8.47;;
4422;SDS011;2224;49.814;8.650;2022-10-17T05:07:51;9.43;;;7.73;;
4422;SDS011;2224;49.814;8.650;2022-10-17T05:10:17;9.03;;;8.10;;
4422;SDS011;2224;49.814;8.650;2022-10-17T05:12:42;10.17;;;7.57;;
4422;SDS011;2224;49.814;8.650;2022-10-17T05:15:08;8.33;;;7.47;;
4422;SDS011;2224;49.814;8.650;2022-10-17T05:17:33;10.30;;;7.13;;
4422;SDS011;2224;49.814;8.650;2022-10-17T05:19:59;9.93;;;7.20;;
4422;SDS011;2224;49.814;8.650;2022-10-17T05:22:24;10.00;;;8.03;;
4422;SDS011;2224;49.814;8.650;2022-10-17T05:24:49;10.07;;;9.13;;
4422;SDS011;2224;49.814;8.650;2022-10-17T05:27:14;11.87;;;10.60;;
4422;SDS011;2224;49.814;8.650;2022-10-17T05:29:40;12.60;;;10.23;;
4422;SDS011;2224;49.814;8.650;2022-10-17T05:32:05;13.43;;;12.13;;
4422;SDS011;2224;49.814;8.650;2022-10-17T05:34:32;15.20;;;11.40;;
4422;SDS011;2224;49.814;8.650;2022-10-17T05:36:57;15.50;;;9.87;;
4422;SDS011;2224;49.814;8.650;2022-10-17T05:39:23;10.00;;;8.90;;
4422;SDS011;2224;49.814;8.650;2022-10-17T05:41:48;11.20;;;8.07;;
4422;SDS011;2224;49.814;8.650;2022-10-17T05:44:15;12.87;;;9.47;;
4422;SDS011;2224;49.814;8.650;2022-10-17T05:46:40;11.73;;;9.83;;
4422;SDS011;2224;49.814;8.650;2022-10-17T05:49:05;12.37;;;9.70;;
4422;SDS011;2224;49.814;8.650;2022-10-17T05:51:32;13.37;;;9.90;;
4422;SDS011;2224;49.814;8.650;2022-10-17T05:53:57;9.37;;;8.47;;
4422;SDS011;2224;49.814;8.650;2022-10-17T05:56:22;14.07;;;9.17;;
4422;SDS011;2224;49.814;8.650;2022-10-17T05:58:48;10.00;;;9.00;;
4422;SDS011;2224;49.814;8.650;2022-10-17T06:01:13;13.87;;;11.67;;
4422;SDS011;2224;49.814;8.650;2022-10-17T06:03:38;17.70;;;9.07;;
4422;SDS011;2224;49.814;8.650;2022-10-17T06:06:05;13.23;;;9.10;;
4422;SDS011;2224;49.814;8.650;2022-10-17T06:08:31;13.67;;;9.23;;
4422;SDS011;2224;49.814;8.650;2022-10-17T06:10:56;11.30;;;9.30;;
4422;SDS011;2224;49.814;8.650;2022-10-17T06:13:22;9.83;;;7.97;;
4422;SDS011;2224;49.814;8.650;2022-10-17T06:15:47;12.03;;;10.20;;
4422;SDS011;2224;49.814;8.650;2022-10-17T06:18:12;19.60;;;8.97;;
4422;SDS011;2224;49.814;8.650;2022-10-17T06:20:37;9.37;;;8.47;;
4422;SDS011;2224;49.814;8.650;2022-10-17T06:23:03;13.17;;;7.97;;
4422;SDS011;2224;49.814;8.650;2022-10-17T06:25:30;10.17;;;7.27;;
4422;SDS011;2224;49.814;8.650;2022-10-17T06:27:55;14.57;;;9.40;;
4422;SDS011;2224;49.814;8.650;2022-10-17T06:30:21;10.63;;;9.47;;
4422;SDS011;2224;49.814;8.650;2022-10-17T06:32:46;12.93;;;9.73;;
4422;SDS011;2224;49.814;8.650;2022-10-17T06:35:12;13.30;;;9.70;;
4422;SDS011;2224;49.814;8.650;2022-10-17T06:37:37;10.77;;;9.50;;
4422;SDS011;2224;49.814;8.650;2022-10-17T06:40:03;11.87;;;9.47;;
4422;SDS011;2224;49.814;8.650;2022-10-17T06:42:29;21.23;;;16.30;;
4422;SDS011;2224;49.814;8.650;2022-10-17T06:44:54;21.13;;;19.03;;
4422;SDS011;2224;49.814;8.650;2022-10-17T06:47:20;20.23;;;17.90;;
4422;SDS011;2224;49.814;8.650;2022-10-17T06:49:45;20.60;;;17.13;;
4422;SDS011;2224;49.814;8.650;2022-10-17T06:52:10;19.33;;;17.40;;
4422;SDS011;2224;49.814;8.650;2022-10-17T06:54:36;17.60;;;12.60;;
4422;SDS011;2224;49.814;8.650;2022-10-17T06:57:01;14.33;;;11.70;;
4422;SDS011;2224;49.814;8.650;2022-10-17T06:59:26;13.03;;;10.87;;
4422;SDS011;2224;49.814;8.650;2022-10-17T07:01:52;17.57;;;12.53;;
4422;SDS011;2224;49.814;8.650;2022-10-17T07:04:17;16.93;;;12.40;;
4422;SDS011;2224;49.814;8.650;2022-10-17T07:06:42;17.07;;;13.30;;
4422;SDS011;2224;49.814;8.650;2022-10-17T07:09:08;13.60;;;12.30;;
4422;SDS011;2224;49.814;8.650;2022-10-17T07:11:33;14.50;;;13.03;;
4422;SDS011;2224;49.814;8.650;2022-10-17T07:13:59;13.13;;;11.80;;
4422;SDS011;2224;49.814;8.650;2022-10-17T07:16:25;16.30;;;14.30;;
4422;SDS011;2224;49.814;8.650;2022-10-17T07:18:50;14.80;;;12.57;;
4422;SDS011;2224;49.814;8.650;2022-10-17T07:21:16;12.73;;;11.43;;
4422;SDS011;2224;49.814;8.650;2022-10-17T07:23:42;15.23;;;10.90;;
4422;SDS011;2224;49.814;8.650;2022-10-17T07:26:08;12.30;;;10.40;;
4422;SDS011;2224;49.814;8.650;2022-10-17T07:28:36;13.60;;;10.70;;
4422;SDS011;2224;49.814;8.650;2022-10-17T07:31:06;12.13;;;10.87;;
4422;SDS011;2224;49.814;8.650;2022-10-17T07:33:36;12.27;;;10.97;;
4422;SDS011;2224;49.814;8.650;2022-10-17T07:36:02;11.13;;;10.07;;
4422;SDS011;2224;49.814;8.650;2022-10-17T07:38:28;13.63;;;9.40;;
4422;SDS011;2224;49.814;8.650;2022-10-17T07:40:57;13.20;;;11.27;;
4422;SDS011;2224;49.814;8.650;2022-10-17T07:43:23;11.47;;;10.30;;
4422;SDS011;2224;49.814;8.650;2022-10-17T07:45:49;12.73;;;10.83;;
4422;SDS011;2224;49.814;8.650;2022-10-17T07:48:15;11.73;;;9.80;;
4422;SDS011;2224;49.814;8.650;2022-10-17T07:50:40;13.57;;;10.50;;
4422;SDS011;2224;49.814;8.650;2022-10-17T07:53:06;15.37;;;9.67;;
4422;SDS011;2224;49.814;8.650;2022-10-17T07:55:31;11.83;;;9.43;;
4422;SDS011;2224;49.814;8.650;2022-10-17T07:57:57;10.40;;;9.30;;
4422;SDS011;2224;49.814;8.650;2022-10-17T08:00:24;9.50;;;8.20;;
4422;SDS011;2224;49.814;8.650;2022-10-17T08:02:50;11.77;;;9.60;;
4422;SDS011;2224;49.814;8.650;2022-10-17T08:05:15;11.17;;;8.40;;
4422;SDS011;2224;49.814;8.650;2022-10-17T08:07:40;11.70;;;9.40;;
4422;SDS011;2224;49.814;8.650;2022-10-17T08:10:06;11.70;;;8.33;;
4422;SDS011;2224;49.814;8.650;2022-10-17T08:12:32;8.63;;;7.60;;
4422;SDS011;2224;49.814;8.650;2022-10-17T08:14:59;10.93;;;9.27;;
4422;SDS011;2224;49.814;8.650;2022-10-17T08:17:24;10.27;;;8.33;;
4422;SDS011;2224;49.814;8.650;2022-10-17T08:19:50;7.97;;;7.17;;
4422;SDS011;2224;49.814;8.650;2022-10-17T08:22:15;13.33;;;8.37;;
4422;SDS011;2224;49.814;8.650;2022-10-17T08:24:41;14.17;;;7.50;;
4422;SDS011;2224;49.814;8.650;2022-10-17T08:27:06;8.43;;;7.07;;
4422;SDS011;2224;49.814;8.650;2022-10-17T08:29:35;7.70;;;5.93;;
4422;SDS011;2224;49.814;8.650;2022-10-17T08:32:01;11.83;;;6.93;;
4422;SDS011;2224;49.814;8.650;2022-10-17T08:34:27;10.10;;;6.57;;
4422;SDS011;2224;49.814;8.650;2022-10-17T08:36:52;10.13;;;6.93;;
4422;SDS011;2224;49.814;8.650;2022-10-17T08:39:17;6.47;;;5.80;;
4422;SDS011;2224;49.814;8.650;2022-10-17T08:41:48;7.47;;;6.77;;
4422;SDS011;2224;49.814;8.650;2022-10-17T08:47:18;8.20;;;6.67;;
4422;SDS011;2224;49.814;8.650;2022-10-17T08:49:49;7.17;;;6.10;;
4422;SDS011;2224;49.814;8.650;2022-10-17T08:52:32;6.13;;;5.60;;
4422;SDS011;2224;49.814;8.650;2022-10-17T08:55:02;7.70;;;6.23;;
4422;SDS011;2224;49.814;8.650;2022-10-17T08:57:28;6.87;;;5.40;;
4422;SDS011;2224;49.814;8.650;2022-10-17T08:59:53;8.80;;;5.90;;
4422;SDS011;2224;49.814;8.650;2022-10-17T09:10:14;7.93;;;5.60;;
4422;SDS011;2224;49.814;8.650;2022-10-17T09:13:03;10.10;;;5.40;;
4422;SDS011;2224;49.814;8.650;2022-10-17T09:15:45;6.63;;;5.87;;
4422;SDS011;2224;49.814;8.650;2022-10-17T09:18:21;6.47;;;5.90;;
4422;SDS011;2224;49.814;8.650;2022-10-17T09:20:50;9.20;;;5.77;;
4422;SDS011;2224;49.814;8.650;2022-10-17T09:23:22;8.37;;;5.93;;
4422;SDS011;2224;49.814;8.650;2022-10-17T09:25:51;5.83;;;5.20;;
4422;SDS011;2224;49.814;8.650;2022-10-17T09:28:19;8.50;;;6.37;;
4422;SDS011;2224;49.814;8.650;2022-10-17T09:30:55;6.57;;;5.87;;
4422;SDS011;2224;49.814;8.650;2022-10-17T09:33:27;7.43;;;5.40;;
4422;SDS011;2224;49.814;8.650;2022-10-17T09:35:54;7.30;;;4.93;;
4422;SDS011;2224;49.814;8.650;2022-10-17T09:38:22;9.40;;;5.00;;
4422;SDS011;2224;49.814;8.650;2022-10-17T09:40:50;5.27;;;4.57;;
4422;SDS011;2224;49.814;8.650;2022-10-17T09:43:21;9.20;;;5.13;;
4422;SDS011;2224;49.814;8.650;2022-10-17T09:46:03;7.97;;;5.00;;
4422;SDS011;2224;49.814;8.650;2022-10-17T09:48:47;7.30;;;4.93;;
4422;SDS011;2224;49.814;8.650;2022-10-17T09:51:15;5.87;;;4.27;;
4422;SDS011;2224;49.814;8.650;2022-10-17T09:53:46;6.87;;;4.50;;
4422;SDS011;2224;49.814;8.650;2022-10-17T09:56:15;5.93;;;5.00;;
4422;SDS011;2224;49.814;8.650;2022-10-17T09:58:43;4.90;;;4.50;;
4422;SDS011;2224;49.814;8.650;2022-10-17T10:01:14;8.20;;;4.30;;
4422;SDS011;2224;49.814;8.650;2022-10-17T10:03:43;4.90;;;4.13;;
4422;SDS011;2224;49.814;8.650;2022-10-17T10:06:18;5.03;;;4.23;;
4422;SDS011;2224;49.814;8.650;2022-10-17T10:08:54;7.30;;;4.70;;
4422;SDS011;2224;49.814;8.650;2022-10-17T10:11:42;6.67;;;4.53;;
4422;SDS011;2224;49.814;8.650;2022-10-17T10:14:31;4.20;;;3.80;;
4422;SDS011;2224;49.814;8.650;2022-10-17T10:17:03;9.80;;;4.10;;
4422;SDS011;2224;49.814;8.650;2022-10-17T10:19:30;7.20;;;4.00;;
4422;SDS011;2224;49.814;8.650;2022-10-17T10:22:02;6.47;;;4.40;;
4422;SDS011;2224;49.814;8.650;2022-10-17T10:24:29;4.70;;;3.60;;
4422;SDS011;2224;49.814;8.650;2022-10-17T10:26:56;6.80;;;4.43;;
4422;SDS011;2224;49.814;8.650;2022-10-17T10:29:30;4.47;;;3.47;;
4422;SDS011;2224;49.814;8.650;2022-10-17T10:37:52;5.90;;;3.60;;
4422;SDS011;2224;49.814;8.650;2022-10-17T10:40:20;5.30;;;4.20;;
4422;SDS011;2224;49.814;8.650;2022-10-17T10:42:48;5.87;;;3.60;;
4422;SDS011;2224;49.814;8.650;2022-10-17T10:45:24;6.87;;;3.90;;
4422;SDS011;2224;49.814;8.650;2022-10-17T10:47:52;8.20;;;4.77;;
4422;SDS011;2224;49.814;8.650;2022-10-17T10:55:45;3.33;;;3.03;;
4422;SDS011;2224;49.814;8.650;2022-10-17T10:58:19;7.33;;;3.70;;
4422;SDS011;2224;49.814;8.650;2022-10-17T11:01:11;6.50;;;3.93;;
4422;SDS011;2224;49.814;8.650;2022-10-17T11:03:41;5.60;;;3.90;;
4422;SDS011;2224;49.814;8.650;2022-10-17T11:06:24;4.47;;;3.80;;
4422;SDS011;2224;49.814;8.650;2022-10-17T11:09:10;4.57;;;3.83;;
4422;SDS011;2224;49.814;8.650;2022-10-17T11:11:41;6.43;;;3.73;;
4422;SDS011;2224;49.814;8.650;2022-10-17T11:17:04;4.27;;;3.53;;
4422;SDS011;2224;49.814;8.650;2022-10-17T11:22:23;6.17;;;3.93;;
4422;SDS011;2224;49.814;8.650;2022-10-17T11:24:52;4.60;;;4.00;;
4422;SDS011;2224;49.814;8.650;2022-10-17T11:27:23;7.00;;;4.07;;
4422;SDS011;2224;49.814;8.650;2022-10-17T11:29:50;8.30;;;3.53;;
4422;SDS011;2224;49.814;8.650;2022-10-17T11:37:44;4.40;;;3.90;;
4422;SDS011;2224;49.814;8.650;2022-10-17T11:40:21;4.27;;;3.60;;
4422;SDS011;2224;49.814;8.650;2022-10-17T11:45:22;5.60;;;3.87;;
4422;SDS011;2224;49.814;8.650;2022-10-17T11:47:51;4.30;;;3.33;;
4422;SDS011;2224;49.814;8.650;2022-10-17T11:52:55;3.93;;;3.07;;
4422;SDS011;2224;49.814;8.650;2022-10-17T11:55:22;4.77;;;3.90;;
4422;SDS011;2224;49.814;8.650;2022-10-17T12:06:19;8.13;;;4.00;;
4422;SDS011;2224;49.814;8.650;2022-10-17T12:09:12;6.13;;;3.57;;
4422;SDS011;2224;49.814;8.650;2022-10-17T12:17:01;4.23;;;3.80;;
4422;SDS011;2224;49.814;8.650;2022-10-17T12:19:34;6.00;;;3.50;;
4422;SDS011;2224;49.814;8.650;2022-10-17T12:24:51;8.03;;;3.63;;
4422;SDS011;2224;49.814;8.650;2022-10-17T12:32:55;4.90;;;3.40;;
4422;SDS011;2224;49.814;8.650;2022-10-17T12:35:25;5.20;;;3.87;;
4422;SDS011;2224;49.814;8.650;2022-10-17T12:43:00;3.30;;;3.00;;
4422;SDS011;2224;49.814;8.650;2022-10-17T12:48:11;6.80;;;3.30;;
4422;SDS011;2224;49.814;8.650;2022-10-17T12:51:19;4.37;;;3.40;;
4422;SDS011;2224;49.814;8.650;2022-10-17T12:56:11;3.50;;;3.20;;
4422;SDS011;2224;49.814;8.650;2022-10-17T12:58:39;4.97;;;3.10;;
4422;SDS011;2224;49.814;8.650;2022-10-17T13:01:08;3.77;;;3.20;;
4422;SDS011;2224;49.814;8.650;2022-10-17T13:03:45;6.10;;;3.70;;
4422;SDS011;2224;49.814;8.650;2022-10-17T13:06:18;6.30;;;3.63;;
4422;SDS011;2224;49.814;8.650;2022-10-17T13:08:46;5.07;;;3.70;;
4422;SDS011;2224;49.814;8.650;2022-10-17T13:11:14;4.63;;;3.13;;
4422;SDS011;2224;49.814;8.650;2022-10-17T13:13:44;5.43;;;3.60;;
4422;SDS011;2224;49.814;8.650;2022-10-17T13:18:58;7.80;;;3.57;;
4422;SDS011;2224;49.814;8.650;2022-10-17T13:21:25;3.60;;;3.30;;
4422;SDS011;2224;49.814;8.650;2022-10-17T13:23:50;3.73;;;3.43;;
4422;SDS011;2224;49.814;8.650;2022-10-17T13:28:46;5.80;;;3.30;;
4422;SDS011;2224;49.814;8.650;2022-10-17T13:31:30;3.57;;;3.27;;
4422;SDS011;2224;49.814;8.650;2022-10-17T13:33:57;3.70;;;3.40;;
4422;SDS011;2224;49.814;8.650;2022-10-17T13:36:24;4.10;;;3.20;;
4422;SDS011;2224;49.814;8.650;2022-10-17T13:38:49;3.60;;;3.30;;
4422;SDS011;2224;49.814;8.650;2022-10-17T13:41:15;3.90;;;3.60;;
4422;SDS011;2224;49.814;8.650;2022-10-17T13:43:42;5.70;;;3.60;;
4422;SDS011;2224;49.814;8.650;2022-10-17T13:46:21;6.73;;;3.90;;
4422;SDS011;2224;49.814;8.650;2022-10-17T13:48:51;3.43;;;3.03;;
4422;SDS011;2224;49.814;8.650;2022-10-17T13:51:17;4.87;;;3.23;;
4422;SDS011;2224;49.814;8.650;2022-10-17T13:53:42;6.33;;;2.97;;
4422;SDS011;2224;49.814;8.650;2022-10-17T13:58:47;4.87;;;2.90;;
4422;SDS011;2224;49.814;8.650;2022-10-17T14:01:13;6.00;;;3.20;;
4422;SDS011;2224;49.814;8.650;2022-10-17T14:03:40;9.43;;;4.00;;
4422;SDS011;2224;49.814;8.650;2022-10-17T14:06:16;7.33;;;3.13;;
4422;SDS011;2224;49.814;8.650;2022-10-17T14:08:47;6.77;;;3.30;;
4422;SDS011;2224;49.814;8.650;2022-10-17T14:11:58;6.23;;;3.17;;
4422;SDS011;2224;49.814;8.650;2022-10-17T14:14:06;7.70;;;3.53;;
4422;SDS011;2224;49.814;8.650;2022-10-17T14:16:39;4.40;;;3.40;;
4422;SDS011;2224;49.814;8.650;2022-10-17T14:19:12;6.10;;;3.43;;
4422;SDS011;2224;49.814;8.650;2022-10-17T14:22:10;8.90;;;3.57;;
4422;SDS011;2224;49.814;8.650;2022-10-17T14:24:58;5.37;;;3.77;;
4422;SDS011;2224;49.814;8.650;2022-10-17T14:27:33;4.20;;;3.80;;
4422;SDS011;2224;49.814;8.650;2022-10-17T14:30:44;6.20;;;3.40;;
4422;SDS011;2224;49.814;8.650;2022-10-17T14:32:50;5.00;;;3.17;;
4422;SDS011;2224;49.814;8.650;2022-10-17T14:35:20;6.43;;;3.27;;
4422;SDS011;2224;49.814;8.650;2022-10-17T14:37:46;5.00;;;3.47;;
4422;SDS011;2224;49.814;8.650;2022-10-17T14:40:13;6.83;;;4.30;;
4422;SDS011;2224;49.814;8.650;2022-10-17T14:42:40;5.93;;;3.70;;
4422;SDS011;2224;49.814;8.650;2022-10-17T14:45:06;5.10;;;3.57;;
4422;SDS011;2224;49.814;8.650;2022-10-17T14:47:35;7.13;;;4.20;;
4422;SDS011;2224;49.814;8.650;2022-10-17T14:50:23;8.67;;;4.40;;
4422;SDS011;2224;49.814;8.650;2022-10-17T14:52:59;4.73;;;4.10;;
4422;SDS011;2224;49.814;8.650;2022-10-17T14:55:27;7.63;;;4.50;;
4422;SDS011;2224;49.814;8.650;2022-10-17T14:57:53;7.03;;;4.27;;
4422;SDS011;2224;49.814;8.650;2022-10-17T15:00:20;4.27;;;3.87;;
4422;SDS011;2224;49.814;8.650;2022-10-17T15:02:46;9.43;;;4.33;;
4422;SDS011;2224;49.814;8.650;2022-10-17T15:05:13;6.93;;;4.70;;
4422;SDS011;2224;49.814;8.650;2022-10-17T15:07:39;6.73;;;4.37;;
4422;SDS011;2224;49.814;8.650;2022-10-17T15:10:05;7.43;;;4.60;;
4422;SDS011;2224;49.814;8.650;2022-10-17T15:12:31;5.03;;;4.33;;
4422;SDS011;2224;49.814;8.650;2022-10-17T15:14:56;5.13;;;4.60;;
4422;SDS011;2224;49.814;8.650;2022-10-17T15:17:23;7.57;;;4.93;;
4422;SDS011;2224;49.814;8.650;2022-10-17T15:19:50;7.07;;;4.50;;
4422;SDS011;2224;49.814;8.650;2022-10-17T15:22:15;5.53;;;4.47;;
4422;SDS011;2224;49.814;8.650;2022-10-17T15:24:42;10.30;;;5.10;;
4422;SDS011;2224;49.814;8.650;2022-10-17T15:27:14;6.07;;;4.57;;
4422;SDS011;2224;49.814;8.650;2022-10-17T15:29:41;9.03;;;4.20;;
4422;SDS011;2224;49.814;8.650;2022-10-17T15:32:06;5.13;;;4.63;;
4422;SDS011;2224;49.814;8.650;2022-10-17T15:34:31;5.00;;;4.50;;
4422;SDS011;2224;49.814;8.650;2022-10-17T15:36:56;10.60;;;4.80;;
4422;SDS011;2224;49.814;8.650;2022-10-17T15:39:22;7.10;;;4.30;;
4422;SDS011;2224;49.814;8.650;2022-10-17T15:41:48;5.83;;;4.70;;
4422;SDS011;2224;49.814;8.650;2022-10-17T15:44:13;8.30;;;5.13;;
4422;SDS011;2224;49.814;8.650;2022-10-17T15:46:39;5.70;;;4.87;;
4422;SDS011;2224;49.814;8.650;2022-10-17T15:49:06;6.63;;;4.77;;
4422;SDS011;2224;49.814;8.650;2022-10-17T15:51:42;7.90;;;5.00;;
4422;SDS011;2224;49.814;8.650;2022-10-17T15:54:07;4.87;;;4.20;;
4422;SDS011;2224;49.814;8.650;2022-10-17T15:56:37;6.50;;;4.67;;
4422;SDS011;2224;49.814;8.650;2022-10-17T15:59:05;4.90;;;4.50;;
4422;SDS011;2224;49.814;8.650;2022-10-17T16:01:38;4.73;;;4.23;;
4422;SDS011;2224;49.814;8.650;2022-10-17T16:04:04;7.00;;;4.93;;
4422;SDS011;2224;49.814;8.650;2022-10-17T16:06:29;6.47;;;5.40;;
4422;SDS011;2224;49.814;8.650;2022-10-17T16:08:54;9.87;;;6.60;;
4422;SDS011;2224;49.814;8.650;2022-10-17T16:11:23;8.17;;;6.30;;
4422;SDS011;2224;49.814;8.650;2022-10-17T16:13:52;10.47;;;6.67;;
4422;SDS011;2224;49.814;8.650;2022-10-17T16:16:19;5.73;;;5.07;;
4422;SDS011;2224;49.814;8.650;2022-10-17T16:18:46;6.70;;;4.17;;
4422;SDS011;2224;49.814;8.650;2022-10-17T16:21:12;5.47;;;4.93;;
4422;SDS011;2224;49.814;8.650;2022-10-17T16:23:38;5.00;;;4.50;;
4422;SDS011;2224;49.814;8.650;2022-10-17T16:26:04;4.77;;;4.17;;
4422;SDS011;2224;49.814;8.650;2022-10-17T16:28:30;6.07;;;4.77;;
4422;SDS011;2224;49.814;8.650;2022-10-17T16:30:55;8.63;;;5.50;;
4422;SDS011;2224;49.814;8.650;2022-10-17T16:33:21;5.40;;;4.90;;
4422;SDS011;2224;49.814;8.650;2022-10-17T16:35:46;8.20;;;5.73;;
4422;SDS011;2224;49.814;8.650;2022-10-17T16:38:13;4.97;;;4.47;;
4422;SDS011;2224;49.814;8.650;2022-10-17T16:40:38;8.03;;;6.10;;
4422;SDS011;2224;49.814;8.650;2022-10-17T16:43:04;6.00;;;5.40;;
4422;SDS011;2224;49.814;8.650;2022-10-17T16:45:30;15.87;;;6.60;;
4422;SDS011;2224;49.814;8.650;2022-10-17T16:47:55;6.07;;;5.40;;
4422;SDS011;2224;49.814;8.650;2022-10-17T16:50:20;8.57;;;5.40;;
4422;SDS011;2224;49.814;8.650;2022-10-17T16:52:46;7.43;;;6.37;;
4422;SDS011;2224;49.814;8.650;2022-10-17T16:55:11;9.27;;;5.67;;
4422;SDS011;2224;49.814;8.650;2022-10-17T16:57:37;9.33;;;6.23;;
4422;SDS011;2224;49.814;8.650;2022-10-17T17:00:03;7.90;;;5.97;;
4422;SDS011;2224;49.814;8.650;2022-10-17T17:02:29;8.53;;;6.70;;
4422;SDS011;2224;49.814;8.650;2022-10-17T17:04:55;7.73;;;6.77;;
4422;SDS011;2224;49.814;8.650;2022-10-17T17:07:20;9.03;;;6.60;;
4422;SDS011;2224;49.814;8.650;2022-10-17T17:09:48;12.40;;;7.20;;
4422;SDS011;2224;49.814;8.650;2022-10-17T17:12:13;7.50;;;6.37;;
4422;SDS011;2224;49.814;8.650;2022-10-17T17:14:38;9.40;;;7.50;;
4422;SDS011;2224;49.814;8.650;2022-10-17T17:17:04;9.73;;;8.70;;
4422;SDS011;2224;49.814;8.650;2022-10-17T17:19:29;12.23;;;9.30;;
4422;SDS011;2224;49.814;8.650;2022-10-17T17:21:54;21.30;;;9.07;;
4422;SDS011;2224;49.814;8.650;2022-10-17T17:24:19;10.43;;;9.10;;